Time;durP1;ratioP1;P1;durP2;ratioP2;P2;SDS_P1;SDS_P2;PMS_P1;PMS_P2;Temp;Humidity;BMP_temperature;BMP_pressure;BME280_temperature;BME280_humidity;BME280_pressure;Samples;Min_cycle;Max_cycle;Signal;HPM_P1;HPM_P2
2022/12/07 00:01:08;;;;;;;8.00;2.65;;;6.30;99.90;;;;;;5041245;28;20029;-68
2022/12/07 00:03:35;;;;;;;11.60;2.42;;;6.30;99.90;;;;;;5033928;28;20112;-69
2022/12/07 00:06:02;;;;;;;13.80;3.13;;;6.30;99.90;;;;;;5039048;28;20026;-69
2022/12/07 00:08:28;;;;;;;11.35;2.35;;;6.30;99.90;;;;;;5025346;28;20035;-69
2022/12/07 00:10:54;;;;;;;14.50;3.22;;;6.30;99.90;;;;;;5034299;28;20653;-68
2022/12/07 00:13:19;;;;;;;14.05;4.13;;;6.20;99.90;;;;;;5030771;28;20040;-69
2022/12/07 00:15:45;;;;;;;13.55;2.50;;;6.20;99.90;;;;;;5034977;28;20018;-68
2022/12/07 00:18:10;;;;;;;9.63;2.80;;;6.20;99.90;;;;;;5035609;28;20034;-68
2022/12/07 00:20:36;;;;;;;15.75;3.97;;;6.10;99.90;;;;;;5031583;28;20040;-69
2022/12/07 00:23:01;;;;;;;14.75;4.28;;;6.10;99.90;;;;;;5024680;28;20037;-69
2022/12/07 00:25:33;;;;;;;15.25;2.50;;;6.10;99.90;;;;;;5035166;28;20059;-70
2022/12/07 00:27:58;;;;;;;10.48;1.85;;;6.00;99.90;;;;;;5029128;28;20025;-69
2022/12/07 00:30:24;;;;;;;7.80;2.20;;;6.10;99.90;;;;;;5035294;28;20038;-69
2022/12/07 00:32:50;;;;;;;14.60;3.92;;;6.10;99.90;;;;;;5024125;28;20044;-69
2022/12/07 00:35:15;;;;;;;6.50;2.08;;;6.10;99.90;;;;;;5027527;28;20018;-68
2022/12/07 00:37:41;;;;;;;12.98;2.47;;;6.00;99.90;;;;;;5025859;28;20026;-69
2022/12/07 00:40:07;;;;;;;13.02;4.00;;;6.00;99.90;;;;;;5036965;28;20116;-68
2022/12/07 00:42:33;;;;;;;12.93;2.50;;;5.90;99.90;;;;;;5040169;28;20457;-68
2022/12/07 00:44:58;;;;;;;11.32;2.97;;;5.90;99.90;;;;;;5036663;28;20057;-68
2022/12/07 00:47:24;;;;;;;16.30;3.22;;;5.80;99.90;;;;;;5037787;28;20118;-69
2022/12/07 00:49:49;;;;;;;9.45;1.88;;;5.80;99.90;;;;;;5037580;28;20040;-67
2022/12/07 00:52:15;;;;;;;6.30;2.15;;;5.80;99.90;;;;;;5018728;28;20049;-68
2022/12/07 00:54:41;;;;;;;10.05;2.40;;;5.80;99.90;;;;;;5040207;28;20029;-68
2022/12/07 00:57:06;;;;;;;9.45;1.73;;;5.90;99.90;;;;;;5048334;28;20058;-71
2022/12/07 00:59:32;;;;;;;7.70;1.60;;;5.90;99.90;;;;;;5039043;28;20083;-69
2022/12/07 01:01:57;;;;;;;8.32;1.88;;;6.00;99.90;;;;;;5026511;28;20108;-70
2022/12/07 01:04:24;;;;;;;4.68;1.75;;;6.00;99.90;;;;;;5036620;28;20032;-68
2022/12/07 01:06:50;;;;;;;5.38;1.85;;;6.10;99.90;;;;;;5038432;28;20025;-68
2022/12/07 01:09:15;;;;;;;10.23;1.98;;;6.10;99.90;;;;;;5039057;28;20024;-69
2022/12/07 01:11:41;;;;;;;7.85;1.95;;;6.20;99.90;;;;;;5028279;28;20037;-71
2022/12/07 01:14:09;;;;;;;4.50;1.63;;;6.20;99.90;;;;;;5025494;28;20022;-71
2022/12/07 01:16:35;;;;;;;9.98;1.83;;;6.20;99.90;;;;;;5037627;28;20021;-71
2022/12/07 01:19:01;;;;;;;9.63;1.70;;;6.20;99.90;;;;;;5034126;28;20029;-71
2022/12/07 01:21:30;;;;;;;9.60;2.92;;;6.20;99.90;;;;;;5024083;28;20026;-70
2022/12/07 01:23:57;;;;;;;11.68;1.42;;;6.30;99.90;;;;;;5045623;28;20094;-71
2022/12/07 01:26:24;;;;;;;9.25;2.10;;;6.30;99.90;;;;;;5038590;28;20025;-70
2022/12/07 01:28:51;;;;;;;10.85;2.10;;;6.30;99.90;;;;;;5045472;28;20116;-71
2022/12/07 01:31:19;;;;;;;8.90;1.73;;;6.30;99.90;;;;;;5021607;28;20053;-71
2022/12/07 01:33:47;;;;;;;12.52;3.05;;;6.30;99.90;;;;;;5029747;28;20029;-71
2022/12/07 01:36:17;;;;;;;8.35;1.65;;;6.20;99.90;;;;;;5051272;28;20021;-71
2022/12/07 01:38:44;;;;;;;9.02;1.98;;;6.20;99.90;;;;;;5034201;28;20028;-71
2022/12/07 01:41:10;;;;;;;11.27;1.63;;;6.30;99.90;;;;;;5026011;28;20120;-71
2022/12/07 01:43:36;;;;;;;14.30;1.67;;;6.30;99.90;;;;;;5045609;28;20108;-69
2022/12/07 01:46:03;;;;;;;9.00;1.40;;;6.30;99.90;;;;;;5038518;28;20409;-69
2022/12/07 01:48:37;;;;;;;10.57;1.80;;;6.30;99.90;;;;;;5031974;28;20115;-71
2022/12/07 01:51:09;;;;;;;11.68;1.70;;;6.30;99.90;;;;;;5034830;28;20030;-69
2022/12/07 01:53:39;;;;;;;8.93;1.73;;;6.30;99.90;;;;;;5022817;28;20442;-68
2022/12/07 01:56:06;;;;;;;12.75;1.88;;;6.30;99.90;;;;;;5030488;28;20091;-70
2022/12/07 01:58:32;;;;;;;14.13;1.73;;;6.30;99.90;;;;;;5021534;28;20021;-70
2022/12/07 02:00:58;;;;;;;13.68;2.35;;;6.20;99.90;;;;;;5037166;28;20369;-70
2022/12/07 02:03:38;;;;;;;12.30;2.20;;;6.20;99.90;;;;;;5035918;28;20025;-70
2022/12/07 02:06:06;;;;;;;11.70;1.52;;;6.20;99.90;;;;;;5038365;28;20038;-70
2022/12/07 02:08:32;;;;;;;5.93;1.35;;;6.20;99.90;;;;;;5037982;28;20528;-70
2022/12/07 02:10:58;;;;;;;15.13;3.13;;;6.20;99.90;;;;;;5021454;28;20030;-68
2022/12/07 02:13:31;;;;;;;10.50;2.10;;;6.10;99.90;;;;;;5043671;28;20475;-70
2022/12/07 02:16:09;;;;;;;11.55;2.10;;;6.10;99.90;;;;;;5038401;28;20045;-71
2022/12/07 02:18:47;;;;;;;15.80;2.67;;;6.00;99.90;;;;;;5021794;28;20025;-71
2022/12/07 02:21:37;;;;;;;13.45;3.03;;;6.00;99.90;;;;;;5029231;28;20025;-70
2022/12/07 02:24:31;;;;;;;18.65;3.05;;;6.00;99.90;;;;;;5046855;28;20108;-70
2022/12/07 02:27:25;;;;;;;13.13;2.08;;;5.90;99.90;;;;;;5028306;28;20036;-69
2022/12/07 02:30:14;;;;;;;10.50;2.38;;;5.90;99.90;;;;;;5038374;28;20485;-68
2022/12/07 02:33:05;;;;;;;10.90;1.42;;;5.90;99.90;;;;;;5023514;28;20094;-70
2022/12/07 02:35:35;;;;;;;13.82;1.90;;;5.90;99.90;;;;;;5042415;28;20091;-70
2022/12/07 02:38:20;;;;;;;13.93;1.65;;;5.80;99.90;;;;;;5049259;28;20104;-70
2022/12/07 02:40:54;;;;;;;9.15;1.15;;;5.80;99.90;;;;;;5018533;28;20104;-70
2022/12/07 02:43:33;;;;;;;7.90;1.58;;;5.80;99.90;;;;;;5043387;28;20682;-70
2022/12/07 02:46:06;;;;;;;8.88;1.70;;;5.80;99.90;;;;;;5030840;28;20153;-71
2022/12/07 02:48:33;;;;;;;13.50;1.63;;;5.80;99.90;;;;;;5020304;28;20115;-70
2022/12/07 02:50:59;;;;;;;9.88;1.48;;;5.70;99.90;;;;;;5024690;28;20095;-68
2022/12/07 02:53:30;;;;;;;14.07;1.95;;;5.70;99.90;;;;;;5042578;28;20045;-70
2022/12/07 02:55:57;;;;;;;9.63;1.27;;;5.70;99.90;;;;;;5043935;28;20132;-68
2022/12/07 02:58:46;;;;;;;9.93;1.73;;;5.70;99.90;;;;;;5037115;28;20121;-69
2022/12/07 03:01:31;;;;;;;9.05;1.33;;;5.70;99.90;;;;;;5031665;28;20643;-70
2022/12/07 03:04:23;;;;;;;9.88;1.30;;;5.70;99.90;;;;;;5033231;28;20041;-68
2022/12/07 03:07:16;;;;;;;12.15;1.80;;;5.80;99.90;;;;;;5025059;28;20028;-71
2022/12/07 03:09:47;;;;;;;;;;;5.80;99.90;;;;;;5030928;28;20061;-71
2022/12/07 03:12:19;;;;;;;10.05;1.55;;;5.80;99.90;;;;;;5021551;28;19920;-71
2022/12/07 03:15:04;;;;;;;6.10;1.02;;;5.80;99.90;;;;;;5035471;28;20017;-68
2022/12/07 03:17:34;;;;;;;8.50;1.20;;;5.90;99.90;;;;;;5041800;28;20517;-69
2022/12/07 03:20:03;;;;;;;6.22;1.17;;;5.90;99.90;;;;;;5028922;28;20022;-70
2022/12/07 03:22:32;;;;;;;9.23;2.20;;;6.00;99.90;;;;;;5020326;28;20025;-70
2022/12/07 03:25:02;;;;;;;15.68;2.20;;;6.00;99.90;;;;;;5030592;28;20032;-69
2022/12/07 03:27:38;;;;;;;8.98;1.40;;;6.00;99.90;;;;;;5041446;28;20022;-69
2022/12/07 03:30:06;;;;;;;13.70;1.38;;;6.00;99.90;;;;;;5041391;28;20025;-70
2022/12/07 03:32:44;;;;;;;11.02;1.50;;;6.00;99.90;;;;;;5019722;28;20029;-69
2022/12/07 03:35:29;;;;;;;13.25;1.98;;;6.00;99.90;;;;;;5044077;28;20021;-69
2022/12/07 03:38:05;;;;;;;13.02;1.92;;;5.90;99.90;;;;;;5047621;28;20029;-71
2022/12/07 03:40:51;;;;;;;13.00;2.30;;;5.90;99.90;;;;;;5030110;28;20021;-69
2022/12/07 03:43:18;;;;;;;10.98;1.60;;;5.90;99.90;;;;;;5022490;28;20030;-70
2022/12/07 03:46:05;;;;;;;14.60;3.05;;;5.90;99.90;;;;;;5045810;28;20378;-71
2022/12/07 03:48:41;;;;;;;15.20;2.40;;;5.90;99.90;;;;;;5025615;28;20944;-69
2022/12/07 03:51:26;;;;;;;12.57;2.50;;;6.00;99.90;;;;;;5038189;28;20131;-70
2022/12/07 03:54:15;;;;;;;15.13;2.80;;;6.00;99.90;;;;;;5038011;28;20042;-70
2022/12/07 03:56:43;;;;;;;11.85;1.90;;;6.00;99.90;;;;;;5022414;28;20449;-70
2022/12/07 03:59:09;;;;;;;7.70;1.65;;;6.10;99.90;;;;;;5048094;28;20032;-69
2022/12/07 04:01:35;;;;;;;10.52;1.33;;;6.20;99.90;;;;;;5025490;28;20037;-69
2022/12/07 04:04:00;;;;;;;10.00;1.40;;;6.30;99.90;;;;;;5044451;28;20074;-69
2022/12/07 04:06:26;;;;;;;9.38;1.10;;;6.40;99.90;;;;;;5033414;28;20183;-69
2022/12/07 04:08:51;;;;;;;7.80;1.20;;;6.40;99.90;;;;;;5037861;28;20040;-67
2022/12/07 04:11:17;;;;;;;7.07;1.23;;;6.50;99.90;;;;;;5040727;28;20028;-69
2022/12/07 04:16:26;;;;;;;8.55;1.40;;;6.60;99.90;;;;;;5029892;28;20083;-68
2022/12/07 04:18:52;;;;;;;9.90;1.40;;;6.60;99.90;;;;;;5026210;28;20041;-69
2022/12/07 04:21:17;;;;;;;10.32;1.50;;;6.60;99.90;;;;;;5040622;28;20109;-67
2022/12/07 04:23:43;;;;;;;7.68;1.23;;;6.60;99.90;;;;;;5045461;28;20093;-68
2022/12/07 04:26:08;;;;;;;12.02;1.40;;;6.60;99.90;;;;;;5045972;28;20023;-69
2022/12/07 04:28:34;;;;;;;11.40;1.50;;;6.60;99.90;;;;;;5046769;28;20025;-69
2022/12/07 04:30:59;;;;;;;10.25;3.05;;;6.70;99.90;;;;;;5030390;28;20026;-69
2022/12/07 04:33:25;;;;;;;7.32;1.20;;;6.60;99.90;;;;;;5033646;28;20040;-69
2022/12/07 04:35:51;;;;;;;7.40;1.38;;;6.60;99.90;;;;;;5037622;28;20021;-69
2022/12/07 04:38:16;;;;;;;5.13;1.38;;;6.60;99.90;;;;;;5046595;28;20055;-70
2022/12/07 04:40:42;;;;;;;15.05;1.90;;;6.70;99.90;;;;;;5041645;28;20022;-69
2022/12/07 04:43:07;;;;;;;8.40;1.45;;;6.70;99.90;;;;;;5025393;28;20036;-69
2022/12/07 04:45:33;;;;;;;7.82;1.73;;;6.70;99.90;;;;;;5044082;28;20094;-69
2022/12/07 04:47:58;;;;;;;6.18;1.40;;;6.70;99.90;;;;;;5035967;28;20029;-69
2022/12/07 04:50:24;;;;;;;7.10;1.98;;;6.70;99.90;;;;;;5042855;28;20104;-69
2022/12/07 04:52:49;;;;;;;11.73;1.20;;;6.70;99.90;;;;;;5037702;28;20118;-71
2022/12/07 04:55:15;;;;;;;5.88;1.30;;;6.80;99.90;;;;;;5042237;28;20138;-71
2022/12/07 04:57:40;;;;;;;6.60;0.60;;;6.80;99.90;;;;;;5045081;28;20028;-71
2022/12/07 05:00:07;;;;;;;4.47;1.15;;;6.70;99.90;;;;;;5044298;28;20029;-72
2022/12/07 05:02:32;;;;;;;6.22;1.08;;;6.60;99.90;;;;;;5028506;28;20033;-71
2022/12/07 05:04:58;;;;;;;2.85;0.65;;;6.60;99.90;;;;;;5044728;28;20104;-70
2022/12/07 05:07:23;;;;;;;4.45;0.80;;;6.60;99.90;;;;;;5042231;28;20048;-69
2022/12/07 05:09:49;;;;;;;5.57;0.65;;;6.60;99.90;;;;;;5036058;28;20030;-71
2022/12/07 05:12:14;;;;;;;11.10;1.30;;;6.60;99.90;;;;;;5030011;28;20079;-69
2022/12/07 05:14:40;;;;;;;2.85;0.77;;;6.60;99.90;;;;;;5028862;28;20028;-69
2022/12/07 05:17:05;;;;;;;4.15;0.80;;;6.60;99.90;;;;;;5047460;28;20021;-69
2022/12/07 05:19:31;;;;;;;3.65;0.77;;;6.60;99.90;;;;;;5045896;28;20082;-69
2022/12/07 05:21:56;;;;;;;6.45;0.80;;;6.50;99.90;;;;;;5037797;28;20025;-71
2022/12/07 05:24:22;;;;;;;8.35;1.17;;;6.50;99.90;;;;;;5050196;28;20033;-69
2022/12/07 05:26:48;;;;;;;7.07;0.98;;;6.40;99.90;;;;;;5040508;28;20025;-70
2022/12/07 05:29:15;;;;;;;8.25;1.10;;;6.40;99.90;;;;;;5045964;28;20176;-70
2022/12/07 05:31:41;;;;;;;5.38;0.98;;;6.50;99.90;;;;;;5027821;28;20485;-70
2022/12/07 05:34:07;;;;;;;5.68;1.10;;;6.40;99.90;;;;;;5030082;28;20101;-70
2022/12/07 05:36:33;;;;;;;7.80;0.98;;;6.40;99.90;;;;;;5032543;28;20119;-70
2022/12/07 05:38:59;;;;;;;5.90;1.30;;;6.40;99.90;;;;;;5031904;28;20121;-69
2022/12/07 05:44:09;;;;;;;8.32;1.40;;;6.40;99.90;;;;;;5033201;28;20067;-70
2022/12/07 05:46:35;;;;;;;8.88;1.95;;;6.40;99.90;;;;;;5040726;28;20044;-69
2022/12/07 05:49:01;;;;;;;12.98;1.67;;;6.40;99.90;;;;;;5024796;28;21667;-69
2022/12/07 05:51:26;;;;;;;11.57;1.30;;;6.30;99.90;;;;;;5024919;28;20025;-69
2022/12/07 05:53:52;;;;;;;8.43;1.60;;;6.40;99.90;;;;;;5037066;28;20453;-69
2022/12/07 05:56:18;;;;;;;7.72;1.17;;;6.40;99.90;;;;;;5029395;28;20030;-69
2022/12/07 06:01:28;;;;;;;7.18;2.10;;;6.40;99.90;;;;;;5029037;28;20052;-69
2022/12/07 06:03:53;;;;;;;8.20;1.48;;;6.50;99.90;;;;;;5015112;28;20026;-69
2022/12/07 06:06:19;;;;;;;8.07;1.88;;;6.40;99.90;;;;;;5027772;28;20033;-69
2022/12/07 06:08:44;;;;;;;9.75;1.40;;;6.40;99.90;;;;;;5034734;28;20033;-70
2022/12/07 06:13:54;;;;;;;13.65;3.30;;;6.30;99.90;;;;;;5021368;28;20100;-69
2022/12/07 06:16:20;;;;;;;10.93;2.72;;;6.20;99.90;;;;;;5013187;28;20033;-70
2022/12/07 06:18:45;;;;;;;12.48;2.65;;;6.20;99.90;;;;;;5014493;28;20025;-69
2022/12/07 06:21:11;;;;;;;12.35;2.22;;;6.20;99.90;;;;;;5015346;28;20026;-70
2022/12/07 06:23:36;;;;;;;10.35;1.92;;;6.20;99.90;;;;;;5013767;28;20681;-70
2022/12/07 06:26:02;;;;;;;9.30;2.13;;;6.10;99.90;;;;;;5027620;28;20412;-69
2022/12/07 06:28:27;;;;;;;8.50;1.75;;;6.20;99.90;;;;;;5014713;28;20371;-70
2022/12/07 06:31:00;;;;;;;8.43;3.05;;;6.20;99.90;;;;;;5026080;28;20028;-68
2022/12/07 06:33:26;;;;;;;7.20;1.60;;;6.20;99.90;;;;;;5031297;28;20377;-69
2022/12/07 06:35:52;;;;;;;10.00;1.83;;;6.10;99.90;;;;;;5025430;28;20037;-70
2022/12/07 06:38:17;;;;;;;8.25;1.58;;;6.10;99.90;;;;;;5034331;28;20025;-69
2022/12/07 06:40:43;;;;;;;9.50;2.10;;;6.10;99.90;;;;;;5033303;28;20028;-70
2022/12/07 06:43:09;;;;;;;10.32;1.88;;;6.00;99.90;;;;;;5034323;28;20029;-70
2022/12/07 06:45:34;;;;;;;5.47;1.50;;;6.00;99.90;;;;;;5032680;28;20054;-70
2022/12/07 06:48:00;;;;;;;7.40;1.83;;;6.00;99.90;;;;;;5034254;28;20163;-70
2022/12/07 06:50:25;;;;;;;8.25;1.35;;;6.00;99.90;;;;;;5033900;28;20032;-70
2022/12/07 06:52:52;;;;;;;9.80;1.98;;;5.90;99.90;;;;;;5031895;28;20150;-68
2022/12/07 06:55:17;;;;;;;12.82;1.80;;;5.90;99.90;;;;;;5020131;28;20040;-69
2022/12/07 06:57:43;;;;;;;7.55;1.55;;;5.80;99.90;;;;;;5013797;28;20022;-68
2022/12/07 07:00:09;;;;;;;10.73;2.20;;;5.80;99.90;;;;;;5035557;28;20476;-69
2022/12/07 07:02:34;;;;;;;7.78;1.45;;;5.70;99.90;;;;;;5026864;28;20108;-69
2022/12/07 07:05:00;;;;;;;8.52;2.30;;;5.60;99.90;;;;;;5033682;28;20117;-69
2022/12/07 07:07:26;;;;;;;12.35;2.22;;;5.60;99.90;;;;;;5027276;28;20104;-70
2022/12/07 07:09:51;;;;;;;14.40;3.20;;;5.50;99.90;;;;;;5013568;28;20030;-70
2022/12/07 07:12:17;;;;;;;15.20;3.65;;;5.50;99.90;;;;;;5025156;28;20033;-69
2022/12/07 07:14:43;;;;;;;17.23;3.92;;;5.40;99.90;;;;;;5032231;28;20037;-68
2022/12/07 07:17:09;;;;;;;16.30;4.18;;;5.40;99.90;;;;;;5029395;28;20489;-69
2022/12/07 07:19:34;;;;;;;21.88;8.23;;;5.40;99.90;;;;;;5013832;28;20045;-70
2022/12/07 07:22:00;;;;;;;14.05;3.85;;;5.30;99.90;;;;;;5022141;28;20069;-70
2022/12/07 07:24:26;;;;;;;8.07;2.38;;;5.40;99.90;;;;;;5033845;28;20350;-70
2022/12/07 07:26:51;;;;;;;13.38;2.85;;;5.50;99.90;;;;;;5032430;28;20064;-70
2022/12/07 07:29:17;;;;;;;11.30;3.20;;;5.60;99.90;;;;;;5033318;28;20022;-69
2022/12/07 07:31:42;;;;;;;12.77;2.30;;;5.70;99.90;;;;;;5026365;28;20079;-69
2022/12/07 07:34:08;;;;;;;17.70;2.70;;;5.80;99.90;;;;;;5018131;28;20026;-69
2022/12/07 07:36:33;;;;;;;7.05;2.15;;;5.90;99.90;;;;;;5012811;28;20022;-69
2022/12/07 07:38:59;;;;;;;10.77;2.10;;;5.90;99.90;;;;;;5013236;28;20469;-70
2022/12/07 07:41:24;;;;;;;7.10;1.90;;;6.00;99.90;;;;;;5016336;28;20412;-68
2022/12/07 07:43:50;;;;;;;8.07;2.10;;;6.00;99.90;;;;;;5016531;28;20462;-69
2022/12/07 07:46:15;;;;;;;7.68;2.08;;;6.10;99.90;;;;;;5019839;28;20038;-68
2022/12/07 07:48:41;;;;;;;8.73;2.03;;;6.10;99.90;;;;;;5032063;28;20030;-68
2022/12/07 07:51:07;;;;;;;10.93;1.77;;;6.10;99.90;;;;;;5035254;28;20061;-69
2022/12/07 07:53:33;;;;;;;9.60;1.98;;;6.20;99.90;;;;;;5028893;28;21320;-69
2022/12/07 07:55:59;;;;;;;8.48;1.83;;;6.20;99.90;;;;;;5021680;28;20104;-67
2022/12/07 07:58:25;;;;;;;11.18;3.40;;;6.20;99.90;;;;;;5032289;28;20033;-69
2022/12/07 08:00:51;;;;;;;11.80;2.85;;;6.10;99.90;;;;;;5026376;28;20638;-69
2022/12/07 08:03:17;;;;;;;15.55;3.25;;;6.10;99.90;;;;;;5026871;28;20473;-70
2022/12/07 08:05:43;;;;;;;17.33;2.88;;;6.10;99.90;;;;;;5021475;28;20029;-68
2022/12/07 08:08:08;;;;;;;11.45;1.95;;;6.10;99.90;;;;;;5032843;28;20378;-70
2022/12/07 08:10:35;;;;;;;6.82;1.70;;;6.10;99.90;;;;;;5030180;28;20052;-70
2022/12/07 08:13:16;;;;;;;10.02;2.05;;;6.00;99.90;;;;;;5031888;28;20034;-68
2022/12/07 08:15:46;;;;;;;5.90;1.65;;;6.10;99.90;;;;;;5034597;28;20026;-70
2022/12/07 08:18:13;;;;;;;12.27;3.58;;;6.20;99.90;;;;;;5030623;28;20029;-70
2022/12/07 08:20:39;;;;;;;12.05;3.40;;;6.30;99.90;;;;;;5030459;28;20100;-70
2022/12/07 08:23:06;;;;;;;11.88;2.97;;;6.40;99.90;;;;;;5019115;28;20398;-69
2022/12/07 08:25:32;;;;;;;15.90;4.38;;;6.40;99.90;;;;;;5021874;28;20064;-70
2022/12/07 08:28:00;;;;;;;12.57;3.05;;;6.50;99.90;;;;;;5031072;28;20029;-69
2022/12/07 08:30:27;;;;;;;13.07;3.10;;;6.50;99.90;;;;;;5030707;28;20044;-69
2022/12/07 08:32:53;;;;;;;8.85;2.20;;;6.50;99.90;;;;;;5035783;28;20432;-70
2022/12/07 08:35:19;;;;;;;8.88;2.20;;;6.40;99.90;;;;;;5030671;28;20059;-70
2022/12/07 08:37:44;;;;;;;13.68;2.03;;;6.30;99.90;;;;;;5018179;28;20022;-70
2022/12/07 08:40:14;;;;;;;13.10;2.42;;;6.30;99.90;;;;;;5011852;28;20101;-71
2022/12/07 08:42:44;;;;;;;7.80;2.63;;;6.30;99.90;;;;;;5028227;28;20025;-70
2022/12/07 08:45:13;;;;;;;8.65;2.28;;;6.20;99.90;;;;;;5031756;28;20371;-71
2022/12/07 08:47:51;;;;;;;10.25;2.63;;;6.20;99.90;;;;;;5032249;28;20031;-70
2022/12/07 08:50:17;;;;;;;6.05;1.98;;;6.20;99.90;;;;;;5022843;28;20369;-70
2022/12/07 08:52:43;;;;;;;7.22;2.35;;;6.10;99.90;;;;;;5022606;28;20061;-71
2022/12/07 08:55:12;;;;;;;6.75;2.17;;;6.20;99.90;;;;;;5026482;28;20381;-70
2022/12/07 08:57:39;;;;;;;10.05;2.70;;;6.20;99.90;;;;;;5035181;28;20020;-69
2022/12/07 09:00:05;;;;;;;11.68;4.25;;;6.20;99.90;;;;;;5033452;28;20026;-70
2022/12/07 09:02:31;;;;;;;14.30;2.50;;;6.20;99.90;;;;;;5016287;28;20030;-70
2022/12/07 09:04:57;;;;;;;9.95;2.70;;;6.30;99.90;;;;;;5024782;28;20029;-68
2022/12/07 09:07:23;;;;;;;15.10;3.28;;;6.30;99.90;;;;;;5035569;28;20034;-70
2022/12/07 09:09:49;;;;;;;10.80;2.47;;;6.40;99.90;;;;;;5027505;28;20649;-70
2022/12/07 09:12:15;;;;;;;5.50;2.15;;;6.40;99.90;;;;;;5026180;28;20462;-68
2022/12/07 09:14:40;;;;;;;10.20;2.42;;;6.50;99.90;;;;;;5034740;28;20061;-68
2022/12/07 09:17:11;;;;;;;13.38;2.53;;;6.50;99.90;;;;;;5015918;28;20100;-69
2022/12/07 09:19:37;;;;;;;10.90;2.30;;;6.60;99.90;;;;;;5014751;28;20014;-70
2022/12/07 09:22:04;;;;;;;12.68;2.83;;;6.70;99.90;;;;;;5022910;28;20377;-69
2022/12/07 09:24:30;;;;;;;6.70;2.13;;;6.80;99.90;;;;;;5015508;28;20021;-69
2022/12/07 09:26:56;;;;;;;7.70;2.10;;;6.90;99.90;;;;;;5031710;28;20112;-69
2022/12/07 09:29:22;;;;;;;9.98;1.75;;;7.20;99.90;;;;;;5023192;28;20075;-70
2022/12/07 09:31:47;;;;;;;12.23;2.40;;;7.50;99.90;;;;;;5024255;28;20145;-70
2022/12/07 09:34:13;;;;;;;8.63;2.78;;;7.70;99.90;;;;;;5017601;28;20084;-70
2022/12/07 09:36:38;;;;;;;12.32;3.28;;;7.80;99.90;;;;;;5030687;28;20079;-69
2022/12/07 09:39:04;;;;;;;15.85;1.92;;;7.90;99.90;;;;;;5029850;28;20405;-70
2022/12/07 09:41:31;;;;;;;7.40;1.42;;;7.90;99.90;;;;;;5023911;28;20378;-70
2022/12/07 09:44:05;;;;;;;10.73;1.83;;;7.90;99.90;;;;;;5026735;28;20068;-70
2022/12/07 09:46:37;;;;;;;12.65;2.10;;;7.90;99.90;;;;;;5027664;28;20144;-70
2022/12/07 09:49:03;;;;;;;11.02;2.25;;;8.00;99.90;;;;;;5033900;28;20014;-68
2022/12/07 09:51:28;;;;;;;7.18;1.48;;;8.20;99.90;;;;;;5032429;28;20030;-68
2022/12/07 09:53:58;;;;;;;9.57;1.80;;;8.40;99.90;;;;;;5022042;28;20071;-68
2022/12/07 09:56:24;;;;;;;7.38;1.73;;;8.60;99.90;;;;;;5014372;28;20022;-71
2022/12/07 09:58:50;;;;;;;9.88;1.90;;;9.00;99.90;;;;;;5023756;28;20057;-71
2022/12/07 10:01:21;;;;;;;9.88;2.08;;;9.50;99.90;;;;;;5027977;28;20041;-69
2022/12/07 10:03:52;;;;;;;9.88;2.40;;;9.70;99.90;;;;;;5021273;28;20017;-69
2022/12/07 10:06:18;;;;;;;9.55;2.42;;;9.70;99.90;;;;;;5034268;28;20025;-68
2022/12/07 10:08:44;;;;;;;11.20;2.53;;;9.50;99.90;;;;;;5031823;28;20378;-69
2022/12/07 10:11:10;;;;;;;9.60;2.83;;;9.40;99.90;;;;;;5027940;28;20079;-70
2022/12/07 10:13:42;;;;;;;12.38;2.10;;;9.40;99.90;;;;;;5033450;28;20029;-68
2022/12/07 10:16:34;;;;;;;11.18;2.42;;;9.60;99.90;;;;;;5029480;28;20041;-70
2022/12/07 10:19:17;;;;;;;6.38;1.30;;;9.90;99.90;;;;;;5023508;28;20478;-70
2022/12/07 10:22:09;;;;;;;10.00;1.90;;;9.90;99.90;;;;;;5032387;28;20484;-70
2022/12/07 10:24:34;;;;;;;12.45;2.38;;;9.80;99.90;;;;;;5022985;28;20152;-70
2022/12/07 10:27:00;;;;;;;8.55;1.90;;;9.70;99.90;;;;;;5034471;28;20450;-70
2022/12/07 10:29:35;;;;;;;12.30;3.28;;;9.50;99.90;;;;;;5039092;28;20021;-70
2022/12/07 10:32:03;;;;;;;10.88;1.77;;;9.40;99.90;;;;;;5020901;28;20122;-69
2022/12/07 10:34:37;;;;;;;12.30;2.70;;;9.20;99.90;;;;;;5016957;28;20453;-70
2022/12/07 10:37:15;;;;;;;11.75;2.72;;;9.20;99.90;;;;;;5024593;28;20021;-68
2022/12/07 10:40:00;;;;;;;14.38;3.40;;;9.40;99.90;;;;;;5032721;28;20064;-69
2022/12/07 10:42:30;;;;;;;15.98;5.43;;;9.70;99.90;;;;;;5029116;28;20347;-69
2022/12/07 10:45:15;;;;;;;18.25;4.32;;;10.20;99.90;;;;;;5033489;28;20041;-69
2022/12/07 10:47:59;;;;;;;13.55;4.03;;;10.80;99.90;;;;;;5032909;28;20377;-69
2022/12/07 10:50:55;;;;;;;15.82;2.13;;;11.00;99.90;;;;;;5029738;28;20604;-69
2022/12/07 10:53:20;;;;;;;11.18;2.50;;;10.80;99.90;;;;;;5013377;28;20045;-69
2022/12/07 10:56:01;;;;;;;10.38;3.45;;;10.50;99.90;;;;;;5044892;28;20021;-70
2022/12/07 10:58:36;;;;;;;10.55;3.50;;;10.60;99.90;;;;;;5033384;28;20013;-70
2022/12/07 11:01:17;;;;;;;6.20;2.08;;;11.40;99.90;;;;;;5028215;28;20059;-69
2022/12/07 11:04:06;;;;;;;4.93;1.77;;;12.20;99.90;;;;;;5029685;28;20029;-69
2022/12/07 11:06:34;;;;;;;10.00;2.58;;;12.80;99.90;;;;;;5033247;28;20026;-69
2022/12/07 11:09:27;;;;;;;4.00;0.90;;;13.10;99.90;;;;;;5031369;28;20522;-68
2022/12/07 11:12:37;;;;;;;5.65;1.83;;;12.80;99.90;;;;;;5023131;28;20057;-69
2022/12/07 11:15:41;;;;;;;8.13;1.70;;;12.30;99.90;;;;;;5014116;28;20067;-69
2022/12/07 11:18:27;;;;;;;6.47;1.52;;;11.70;99.90;;;;;;5030393;28;20030;-69
2022/12/07 11:21:12;;;;;;;8.60;1.65;;;11.20;99.90;;;;;;5031760;28;20100;-69
2022/12/07 11:23:46;;;;;;;9.88;2.92;;;11.40;99.90;;;;;;5030527;28;20036;-68
2022/12/07 11:26:27;;;;;;;14.95;3.97;;;12.10;99.90;;;;;;5031883;28;20053;-69
2022/12/07 11:29:17;;;;;;;7.88;2.47;;;12.90;99.90;;;;;;5032768;28;20032;-68
2022/12/07 11:32:04;;;;;;;12.02;3.70;;;13.70;99.90;;;;;;5026937;28;20025;-69
2022/12/07 11:34:45;;;;;;;6.57;1.50;;;14.50;99.90;;;;;;5029871;28;20385;-69
2022/12/07 11:37:17;;;;;;;6.78;2.42;;;15.00;99.90;;;;;;5032441;28;20088;-69
2022/12/07 11:40:08;;;;;;;4.25;1.50;;;15.30;99.90;;;;;;5031734;28;20033;-70
2022/12/07 11:42:42;;;;;;;8.05;2.03;;;15.50;99.90;;;;;;5029994;28;20034;-69
2022/12/07 11:45:13;;;;;;;10.02;2.80;;;15.60;99.80;;;;;;5032678;28;20069;-71
2022/12/07 11:47:54;;;;;;;14.10;5.50;;;15.50;99.70;;;;;;5032380;28;20520;-68
2022/12/07 11:50:20;;;;;;;4.93;1.80;;;15.20;99.60;;;;;;5027673;28;20075;-70
2022/12/07 11:52:58;;;;;;;7.10;2.17;;;14.90;99.60;;;;;;5031254;28;20045;-68
2022/12/07 11:55:53;;;;;;;9.90;2.33;;;14.80;98.40;;;;;;5027519;28;20025;-71
2022/12/07 11:58:52;;;;;;;12.50;3.80;;;14.70;99.60;;;;;;5012839;28;20029;-70
2022/12/07 12:01:24;;;;;;;9.23;2.78;;;14.90;99.90;;;;;;5013716;28;20461;-70
2022/12/07 12:04:06;;;;;;;5.93;1.00;;;15.20;99.80;;;;;;5020641;28;20021;-69
2022/12/07 12:06:34;;;;;;;8.43;1.95;;;15.60;97.00;;;;;;5032290;28;20037;-69
2022/12/07 12:09:00;;;;;;;9.43;2.03;;;15.70;99.30;;;;;;5031003;28;20116;-70
2022/12/07 12:11:52;;;;;;;6.95;1.67;;;16.00;98.50;;;;;;5040473;28;20124;-68
2022/12/07 12:14:20;;;;;;;5.70;1.80;;;15.90;97.40;;;;;;5019763;28;20029;-68
2022/12/07 12:17:15;;;;;;;3.17;1.13;;;15.20;97.00;;;;;;5025325;28;20022;-68
2022/12/07 12:19:59;;;;;;;8.57;1.63;;;13.90;99.90;;;;;;5030178;28;20034;-70
2022/12/07 12:22:37;;;;;;;3.05;1.08;;;12.80;99.90;;;;;;5033887;28;20025;-71
2022/12/07 12:25:06;;;;;;;3.67;1.00;;;11.60;99.90;;;;;;5036066;28;20029;-69
2022/12/07 12:27:35;;;;;;;11.48;3.58;;;10.50;99.90;;;;;;5030705;28;20125;-71
2022/12/07 12:30:30;;;;;;;13.57;4.25;;;9.70;99.90;;;;;;5026061;28;20060;-70
2022/12/07 12:33:03;;;;;;;9.90;2.85;;;9.20;99.90;;;;;;5016955;28;20037;-70
2022/12/07 12:35:33;;;;;;;10.40;3.20;;;8.90;99.90;;;;;;5033379;28;20022;-69
2022/12/07 12:38:27;;;;;;;4.88;1.30;;;8.70;99.90;;;;;;5034628;28;20028;-70
2022/12/07 12:40:54;;;;;;;7.93;1.92;;;8.60;99.90;;;;;;5021438;28;20088;-70
2022/12/07 12:43:48;;;;;;;6.97;1.45;;;8.50;99.90;;;;;;5022174;28;20049;-67
2022/12/07 12:46:29;;;;;;;15.02;3.30;;;8.40;99.90;;;;;;5041197;28;20042;-69
2022/12/07 12:49:14;;;;;;;9.85;3.85;;;8.40;99.90;;;;;;5028667;28;20152;-69
2022/12/07 12:51:46;;;;;;;10.18;3.42;;;8.40;99.90;;;;;;5027037;28;20465;-69
2022/12/07 12:54:21;;;;;;;7.88;1.88;;;8.30;99.90;;;;;;5036265;28;20036;-69
2022/12/07 12:56:59;;;;;;;8.02;1.98;;;8.30;99.90;;;;;;5038386;28;20458;-67
2022/12/07 12:59:39;;;;;;;8.60;2.78;;;8.30;99.90;;;;;;5017633;28;20025;-70
2022/12/07 13:02:26;;;;;;;15.88;3.22;;;8.30;99.90;;;;;;5020344;28;20052;-69
2022/12/07 13:05:37;;;;;;;6.68;2.08;;;8.30;99.90;;;;;;5029280;28;20029;-69
2022/12/07 13:08:45;;;;;;;9.18;2.05;;;8.30;99.90;;;;;;5026697;28;20112;-69
2022/12/07 13:11:36;;;;;;;8.85;2.17;;;8.30;99.90;;;;;;5026499;28;20118;-68
2022/12/07 13:14:43;;;;;;;10.02;3.28;;;8.40;99.90;;;;;;5043838;28;20118;-68
2022/12/07 13:17:36;;;;;;;12.65;2.63;;;8.50;99.90;;;;;;5040957;28;20029;-68
2022/12/07 13:20:07;;;;;;;12.82;2.88;;;8.80;99.90;;;;;;5018189;28;20033;-68
2022/12/07 13:22:48;;;;;;;15.73;4.60;;;9.10;99.90;;;;;;5035348;28;20021;-69